createdAt,value
2022-09-11T00:01:29.064Z,80.63
2022-09-11T00:07:07.152Z,81.40
2022-09-11T00:12:44.771Z,80.66
2022-09-11T00:18:17.309Z,79.51
2022-09-11T00:21:07.810Z,78.94
2022-09-11T00:23:55.989Z,80.27
2022-09-11T00:26:47.336Z,80.69
2022-09-11T00:32:22.510Z,80.84
2022-09-11T00:37:58.384Z,79.92
2022-09-11T00:43:55.159Z,78.41
2022-09-11T00:49:41.552Z,79.67
2022-09-11T00:58:04.902Z,80.95
2022-09-11T01:03:34.757Z,80.82
2022-09-11T01:09:13.346Z,81.17
2022-09-11T01:14:49.478Z,81.49
2022-09-11T01:20:32.868Z,80.85
2022-09-11T01:27:09.166Z,79.30
2022-09-11T01:30:00.588Z,80.07
2022-09-11T01:38:51.650Z,79.08
2022-09-11T01:44:29.988Z,78.57
2022-09-11T01:47:19.400Z,77.94
2022-09-11T01:50:10.811Z,78.09
2022-09-11T01:53:01.965Z,78.57
2022-09-11T01:58:44.426Z,78.26
2022-09-11T02:01:35.910Z,78.79
2022-09-11T02:07:17.003Z,78.12
2022-09-11T02:12:58.174Z,77.99
2022-09-11T02:15:48.931Z,77.58
2022-09-11T02:21:20.032Z,76.04
2022-09-11T02:24:09.361Z,76.09
2022-09-11T02:29:50.665Z,76.40
2022-09-11T02:35:30.955Z,76.66
2022-09-11T02:41:07.358Z,76.59
2022-09-11T02:49:56.119Z,75.84
2022-09-11T02:55:39.142Z,75.37
2022-09-11T03:01:05.941Z,75.22
2022-09-11T03:03:57.502Z,75.72
2022-09-11T03:09:35.624Z,75.76
2022-09-11T03:12:24.734Z,75.54
2022-09-11T03:15:17.175Z,75.39
2022-09-11T03:20:54.462Z,75.56
2022-09-11T03:26:33.659Z,76.41
2022-09-11T03:29:23.046Z,76.59
2022-09-11T03:32:11.365Z,79.56
2022-09-11T03:35:02.317Z,80.76
2022-09-11T03:37:50.419Z,82.20
2022-09-11T03:40:39.630Z,83.06
2022-09-11T03:46:05.952Z,85.86
2022-09-11T03:54:26.458Z,85.92
2022-09-11T03:57:15.006Z,87.07
2022-09-11T04:00:04.406Z,87.04
2022-09-11T04:02:55.586Z,87.49
2022-09-11T04:08:33.683Z,91.04
2022-09-11T04:11:22.401Z,91.22
2022-09-11T04:14:11.054Z,92.30
2022-09-11T04:19:45.613Z,91.28
2022-09-11T04:25:20.270Z,90.78
2022-09-11T04:28:10.067Z,90.47
2022-09-11T04:33:45.626Z,91.41
2022-09-11T04:36:33.964Z,91.65
2022-09-11T04:42:04.552Z,92.23
2022-09-11T04:44:52.819Z,92.22
2022-09-11T04:47:40.918Z,92.35
2022-09-11T04:53:11.514Z,92.93
2022-09-11T04:56:07.939Z,92.64
2022-09-11T05:01:42.095Z,93.03
2022-09-11T05:04:29.952Z,93.33
2022-09-11T05:10:06.110Z,94.06
2022-09-11T05:12:57.291Z,93.80
2022-09-11T05:18:26.219Z,94.96
2022-09-11T05:21:16.098Z,95.38
2022-09-11T05:26:54.086Z,95.91
2022-09-11T05:29:42.505Z,96.14
2022-09-11T05:32:30.962Z,96.64
2022-09-11T05:37:59.698Z,95.31
2022-09-11T05:40:49.140Z,96.12
2022-09-11T05:43:37.752Z,96.56
2022-09-11T05:49:07.460Z,97.00
2022-09-11T05:51:55.828Z,96.92
2022-09-11T05:54:44.132Z,96.20
2022-09-11T06:00:26.692Z,95.47
2022-09-11T06:03:15.588Z,94.92
2022-09-11T06:06:05.294Z,93.56
2022-09-11T06:08:55.802Z,93.80
2022-09-11T06:11:44.404Z,94.69
2022-09-11T06:14:32.686Z,93.46
2022-09-11T06:17:22.745Z,94.05
2022-09-11T06:20:12.286Z,93.17
2022-09-11T06:25:48.168Z,92.43
2022-09-11T06:28:37.640Z,91.62
2022-09-11T06:34:20.192Z,91.66
2022-09-11T06:39:55.268Z,92.36
2022-09-11T06:42:43.665Z,90.54
2022-09-11T06:48:19.539Z,88.46
2022-09-11T06:51:11.224Z,85.83
2022-09-11T06:54:02.400Z,85.32
2022-09-11T06:59:29.036Z,84.50
2022-09-11T07:02:17.191Z,81.63
2022-09-11T07:05:06.619Z,79.93
2022-09-11T07:07:55.345Z,78.80
2022-09-11T07:13:25.486Z,77.69
2022-09-11T07:16:15.114Z,76.78
2022-09-11T07:19:03.837Z,75.19
2022-09-11T07:24:33.920Z,76.47
2022-09-11T07:27:23.140Z,77.88
2022-09-11T07:32:56.585Z,77.44
2022-09-11T07:35:44.844Z,76.41
2022-09-11T07:41:14.510Z,72.68
2022-09-11T07:46:51.360Z,70.00
2022-09-11T07:52:20.564Z,67.45
2022-09-11T07:55:10.065Z,68.15
2022-09-11T07:57:58.947Z,68.50
2022-09-11T08:03:49.309Z,66.41
2022-09-11T08:06:38.673Z,64.98
2022-09-11T08:12:15.043Z,64.52
2022-09-11T08:15:07.223Z,63.49
2022-09-11T08:20:44.598Z,63.34
2022-09-11T08:26:31.070Z,64.34
2022-09-11T08:29:19.436Z,63.89
2022-09-11T08:34:56.791Z,60.98
2022-09-11T08:40:30.950Z,62.89
2022-09-11T08:46:09.215Z,61.68
2022-09-11T08:49:04.066Z,61.75
2022-09-11T08:51:53.930Z,61.73
2022-09-11T08:57:46.034Z,62.07
2022-09-11T09:00:38.507Z,62.60
2022-09-11T09:03:49.101Z,62.80
2022-09-11T09:09:45.999Z,60.68
2022-09-11T09:15:33.172Z,59.18
2022-09-11T09:21:12.628Z,58.66
2022-09-11T09:24:03.101Z,57.33
2022-09-11T09:29:37.686Z,58.23
2022-09-11T09:35:16.703Z,57.91
2022-09-11T09:38:08.583Z,57.08
2022-09-11T09:41:03.703Z,57.36
2022-09-11T09:43:54.965Z,55.49
2022-09-11T09:49:32.178Z,56.22
2022-09-11T09:52:22.244Z,52.59
2022-09-11T09:58:02.744Z,52.13
2022-09-11T10:03:39.160Z,53.18
2022-09-11T10:09:29.352Z,54.09
2022-09-11T10:12:20.555Z,54.95
2022-09-11T10:18:20.128Z,55.32
2022-09-11T10:24:23.035Z,51.68
2022-09-11T10:29:55.438Z,48.16
2022-09-11T10:35:34.299Z,47.79
2022-09-11T10:41:09.183Z,48.22
2022-09-11T10:46:47.072Z,51.96
2022-09-11T10:52:22.999Z,51.09
2022-09-11T10:58:05.303Z,52.73
2022-09-11T11:03:38.792Z,51.81
2022-09-11T11:09:31.312Z,49.71
2022-09-11T11:12:34.252Z,49.38
2022-09-11T11:18:43.566Z,47.14
2022-09-11T11:24:43.961Z,48.10
2022-09-11T11:27:49.217Z,45.96
2022-09-11T11:33:37.114Z,45.04
2022-09-11T11:39:22.409Z,43.49
2022-09-11T11:45:04.784Z,44.25
2022-09-11T11:47:57.377Z,44.34
2022-09-11T11:53:38.070Z,43.98
2022-09-11T11:59:15.321Z,45.35
2022-09-11T12:04:55.124Z,44.99
2022-09-11T12:07:43.219Z,44.82
2022-09-11T12:13:20.563Z,42.76
2022-09-11T12:16:19.233Z,43.37
2022-09-11T12:19:11.730Z,42.94
2022-09-11T12:24:59.348Z,42.88
2022-09-11T12:27:55.471Z,42.51
2022-09-11T12:33:56.285Z,43.11
2022-09-11T12:36:54.495Z,45.79
2022-09-11T12:42:57.934Z,43.36
2022-09-11T12:48:38.621Z,44.01
2022-09-11T12:51:30.261Z,44.82
2022-09-11T12:54:20.985Z,44.65
2022-09-11T12:57:10.819Z,43.65
2022-09-11T13:05:39.169Z,46.22
2022-09-11T13:08:30.363Z,45.41
2022-09-11T13:14:50.290Z,44.87
2022-09-11T13:20:33.979Z,44.81
2022-09-11T13:23:23.301Z,45.63
2022-09-11T13:29:03.461Z,43.32
2022-09-11T13:34:32.079Z,44.42
2022-09-11T13:37:31.308Z,44.47
2022-09-11T13:40:22.340Z,43.44
2022-09-11T13:43:16.443Z,44.07
2022-09-11T13:49:46.646Z,43.46
2022-09-11T13:52:36.880Z,43.02
2022-09-11T13:58:25.959Z,43.48
2022-09-11T14:01:16.780Z,43.94
2022-09-11T14:06:51.092Z,44.46
2022-09-11T14:12:22.293Z,44.33
2022-09-11T14:18:03.689Z,44.86
2022-09-11T14:23:45.190Z,42.33
2022-09-11T14:26:43.052Z,43.07
2022-09-11T14:29:33.001Z,43.47
2022-09-11T14:32:32.927Z,42.00
2022-09-11T14:38:06.544Z,43.19
2022-09-11T14:43:47.667Z,42.69
2022-09-11T14:49:21.183Z,43.31
2022-09-11T14:52:12.972Z,45.68
2022-09-11T14:57:43.907Z,42.60
2022-09-11T15:03:21.395Z,43.35
2022-09-11T15:08:55.720Z,43.58
2022-09-11T15:11:50.621Z,42.95
2022-09-11T15:17:20.236Z,44.88
2022-09-11T15:20:10.135Z,44.74
2022-09-11T15:25:38.313Z,45.26
2022-09-11T15:28:27.809Z,44.32
2022-09-11T15:31:18.833Z,45.07
2022-09-11T15:34:07.846Z,44.61
2022-09-11T15:36:56.777Z,43.98
2022-09-11T15:42:34.415Z,44.50
2022-09-11T15:45:21.577Z,44.54
2022-09-11T15:48:11.525Z,44.22
2022-09-11T15:56:31.493Z,43.61
2022-09-11T16:02:05.165Z,45.12
2022-09-11T16:07:42.033Z,45.83
2022-09-11T16:13:20.001Z,45.69
2022-09-11T16:16:09.087Z,45.20
2022-09-11T16:21:46.008Z,45.60
2022-09-11T16:24:37.278Z,45.60
2022-09-11T16:27:25.807Z,46.76
2022-09-11T16:32:56.422Z,46.79
2022-09-11T16:38:30.015Z,47.69
2022-09-11T16:41:19.843Z,48.14
2022-09-11T16:47:10.849Z,48.41
2022-09-11T16:53:02.509Z,49.88
2022-09-11T16:55:52.766Z,50.64
2022-09-11T16:58:41.430Z,50.60
2022-09-11T17:01:31.433Z,51.27
2022-09-11T17:04:19.866Z,51.40
2022-09-11T17:09:53.436Z,52.06
2022-09-11T17:12:41.797Z,52.80
2022-09-11T17:18:11.365Z,52.67
2022-09-11T17:21:02.301Z,53.32
2022-09-11T17:26:36.414Z,54.75
2022-09-11T17:32:31.326Z,55.59
2022-09-11T17:35:06.533Z,55.92
2022-09-11T17:37:57.237Z,55.38
2022-09-11T17:40:46.035Z,56.54
2022-09-11T17:43:35.188Z,57.47
2022-09-11T17:49:12.256Z,58.07
2022-09-11T17:52:02.635Z,58.44
2022-09-11T17:54:51.652Z,58.98
2022-09-11T17:57:40.611Z,59.67
2022-09-11T18:03:14.962Z,60.18
2022-09-11T18:06:04.650Z,60.28
2022-09-11T18:08:55.301Z,61.38
2022-09-11T18:11:45.690Z,61.19
2022-09-11T18:14:35.812Z,61.62
2022-09-11T18:17:24.485Z,62.40
2022-09-11T18:22:56.323Z,62.94
2022-09-11T18:28:46.051Z,63.29
2022-09-11T18:34:19.224Z,64.16
2022-09-11T18:39:50.192Z,65.08
2022-09-11T18:45:38.842Z,66.07
2022-09-11T18:51:12.658Z,68.10
2022-09-11T18:57:18.067Z,68.40
2022-09-11T19:00:08.006Z,68.87
2022-09-11T19:05:44.155Z,69.69
2022-09-11T19:11:20.883Z,69.54
2022-09-11T19:14:10.654Z,68.89
2022-09-11T19:17:00.350Z,68.76
2022-09-11T19:19:50.029Z,69.10
2022-09-11T19:22:38.451Z,68.61
2022-09-11T19:28:15.791Z,68.47
2022-09-11T19:33:54.481Z,68.85
2022-09-11T19:39:33.815Z,68.81
2022-09-11T19:45:18.089Z,68.45
2022-09-11T19:50:53.922Z,67.96
2022-09-11T19:53:42.898Z,67.73
2022-09-11T19:56:32.041Z,67.55
2022-09-11T20:02:06.287Z,66.10
2022-09-11T20:04:54.154Z,65.47
2022-09-11T20:07:43.676Z,64.73
2022-09-11T20:13:15.954Z,64.92
2022-09-11T20:16:05.366Z,66.01
2022-09-11T20:18:55.757Z,64.58
2022-09-11T20:21:43.752Z,64.91
2022-09-11T20:24:31.870Z,63.94
2022-09-11T20:27:20.441Z,63.63
2022-09-11T20:30:12.496Z,64.04
2022-09-11T20:33:00.841Z,63.66
2022-09-11T20:35:49.218Z,63.54
2022-09-11T20:41:24.740Z,64.87
2022-09-11T20:47:01.686Z,64.60
2022-09-11T20:49:50.660Z,65.07
2022-09-11T20:55:27.662Z,65.04
2022-09-11T20:58:15.962Z,64.86
2022-09-11T21:01:05.216Z,64.91
2022-09-11T21:03:57.762Z,65.29
2022-09-11T21:09:34.284Z,65.05
2022-09-11T21:12:23.259Z,65.38
2022-09-11T21:17:54.354Z,66.07
2022-09-11T21:20:43.282Z,65.97
2022-09-11T21:26:19.620Z,66.48
2022-09-11T21:29:09.623Z,66.25
2022-09-11T21:34:44.315Z,65.32
2022-09-11T21:40:19.926Z,67.31
2022-09-11T21:45:51.175Z,67.93
2022-09-11T21:51:23.220Z,65.93
2022-09-11T21:56:56.862Z,67.02
2022-09-11T22:02:33.065Z,68.18
2022-09-11T22:05:21.632Z,68.03
2022-09-11T22:10:57.648Z,68.50
2022-09-11T22:16:37.186Z,69.31
2022-09-11T22:19:25.381Z,68.88
2022-09-11T22:22:13.449Z,68.92
2022-09-11T22:25:01.515Z,70.17
2022-09-11T22:27:49.797Z,70.53
2022-09-11T22:33:29.419Z,70.75
2022-09-11T22:39:16.157Z,70.03
2022-09-11T22:42:07.796Z,70.70
2022-09-11T22:47:42.579Z,72.05
2022-09-11T22:50:31.115Z,73.09
2022-09-11T22:53:20.331Z,72.99
2022-09-11T22:59:00.374Z,74.37
2022-09-11T23:01:48.621Z,75.22
2022-09-11T23:04:36.898Z,76.43
2022-09-11T23:07:24.843Z,76.98
2022-09-11T23:10:13.640Z,77.47
2022-09-11T23:13:02.197Z,77.02
2022-09-11T23:18:39.141Z,79.57
2022-09-11T23:21:30.083Z,79.56
2022-09-11T23:27:08.913Z,82.09
2022-09-11T23:29:57.640Z,83.07
2022-09-11T23:35:29.421Z,83.01
2022-09-11T23:41:04.535Z,84.19
2022-09-11T23:46:40.284Z,85.72
2022-09-11T23:52:17.625Z,85.84
2022-09-11T23:57:51.007Z,85.01
